sensor_id;sensor_type;location;lat;lon;timestamp;temperature;humidity
18047;DHT22;9148;51.454;13.862;2023-05-07T00:01:46;10.20;99.90
18047;DHT22;9148;51.454;13.862;2023-05-07T00:04:12;10.20;99.90
18047;DHT22;9148;51.454;13.862;2023-05-07T00:06:38;10.10;99.90
18047;DHT22;9148;51.454;13.862;2023-05-07T00:09:05;10.10;99.90
18047;DHT22;9148;51.454;13.862;2023-05-07T00:11:31;10.10;99.90
18047;DHT22;9148;51.454;13.862;2023-05-07T00:13:57;10.10;99.90
18047;DHT22;9148;51.454;13.862;2023-05-07T00:16:23;10.10;99.90
18047;DHT22;9148;51.454;13.862;2023-05-07T00:18:49;10.10;99.90
18047;DHT22;9148;51.454;13.862;2023-05-07T00:21:14;10.10;99.90
18047;DHT22;9148;51.454;13.862;2023-05-07T00:23:40;10.00;99.90
18047;DHT22;9148;51.454;13.862;2023-05-07T00:26:06;10.00;99.90
18047;DHT22;9148;51.454;13.862;2023-05-07T00:28:31;10.10;99.90
18047;DHT22;9148;51.454;13.862;2023-05-07T00:30:57;10.10;99.90
18047;DHT22;9148;51.454;13.862;2023-05-07T00:33:23;10.10;99.90
18047;DHT22;9148;51.454;13.862;2023-05-07T00:35:48;10.00;99.90
18047;DHT22;9148;51.454;13.862;2023-05-07T00:38:14;10.00;99.90
18047;DHT22;9148;51.454;13.862;2023-05-07T00:40:40;10.00;99.90
18047;DHT22;9148;51.454;13.862;2023-05-07T00:43:06;10.00;99.90
18047;DHT22;9148;51.454;13.862;2023-05-07T00:45:33;10.00;99.90
18047;DHT22;9148;51.454;13.862;2023-05-07T00:48:02;10.00;99.90
18047;DHT22;9148;51.454;13.862;2023-05-07T00:50:28;10.00;99.90
18047;DHT22;9148;51.454;13.862;2023-05-07T00:52:55;9.90;99.90
18047;DHT22;9148;51.454;13.862;2023-05-07T00:55:22;10.00;99.90
18047;DHT22;9148;51.454;13.862;2023-05-07T00:57:49;9.90;99.90
18047;DHT22;9148;51.454;13.862;2023-05-07T01:00:16;9.80;99.90
18047;DHT22;9148;51.454;13.862;2023-05-07T01:02:42;9.80;99.90
18047;DHT22;9148;51.454;13.862;2023-05-07T01:05:10;9.70;99.90
18047;DHT22;9148;51.454;13.862;2023-05-07T01:07:38;9.70;99.90
18047;DHT22;9148;51.454;13.862;2023-05-07T01:10:06;9.60;99.90
18047;DHT22;9148;51.454;13.862;2023-05-07T01:12:33;9.60;99.90
18047;DHT22;9148;51.454;13.862;2023-05-07T01:15:00;9.60;99.90
18047;DHT22;9148;51.454;13.862;2023-05-07T01:17:26;9.50;99.90
18047;DHT22;9148;51.454;13.862;2023-05-07T01:19:52;9.50;99.90
18047;DHT22;9148;51.454;13.862;2023-05-07T01:22:33;9.40;99.90
18047;DHT22;9148;51.454;13.862;2023-05-07T01:25:02;9.40;99.90
18047;DHT22;9148;51.454;13.862;2023-05-07T01:27:28;9.30;99.90
18047;DHT22;9148;51.454;13.862;2023-05-07T01:29:54;9.20;99.90
18047;DHT22;9148;51.454;13.862;2023-05-07T01:32:24;9.20;99.90
18047;DHT22;9148;51.454;13.862;2023-05-07T01:35:14;9.20;99.90
18047;DHT22;9148;51.454;13.862;2023-05-07T01:37:42;9.10;99.90
18047;DHT22;9148;51.454;13.862;2023-05-07T01:40:09;9.10;99.90
18047;DHT22;9148;51.454;13.862;2023-05-07T01:42:35;9.10;99.90
18047;DHT22;9148;51.454;13.862;2023-05-07T01:45:01;9.10;99.90
18047;DHT22;9148;51.454;13.862;2023-05-07T01:47:27;9.10;99.90
18047;DHT22;9148;51.454;13.862;2023-05-07T01:49:55;9.20;99.90
18047;DHT22;9148;51.454;13.862;2023-05-07T01:52:20;9.20;99.90
18047;DHT22;9148;51.454;13.862;2023-05-07T01:54:46;9.10;99.90
18047;DHT22;9148;51.454;13.862;2023-05-07T01:57:12;9.10;99.90
18047;DHT22;9148;51.454;13.862;2023-05-07T01:59:37;9.10;99.90
18047;DHT22;9148;51.454;13.862;2023-05-07T02:02:03;9.10;99.90
18047;DHT22;9148;51.454;13.862;2023-05-07T02:04:29;9.10;99.90
18047;DHT22;9148;51.454;13.862;2023-05-07T02:06:54;9.10;99.90
18047;DHT22;9148;51.454;13.862;2023-05-07T02:09:21;9.10;99.90
18047;DHT22;9148;51.454;13.862;2023-05-07T02:11:47;9.10;99.90
18047;DHT22;9148;51.454;13.862;2023-05-07T02:14:12;9.00;99.90
18047;DHT22;9148;51.454;13.862;2023-05-07T02:16:38;9.10;99.90
18047;DHT22;9148;51.454;13.862;2023-05-07T02:19:04;9.00;99.90
18047;DHT22;9148;51.454;13.862;2023-05-07T02:21:30;9.10;99.90
18047;DHT22;9148;51.454;13.862;2023-05-07T02:23:56;9.10;99.90
18047;DHT22;9148;51.454;13.862;2023-05-07T02:26:21;9.20;99.90
18047;DHT22;9148;51.454;13.862;2023-05-07T02:28:47;9.10;99.90
18047;DHT22;9148;51.454;13.862;2023-05-07T02:31:13;9.10;99.90
18047;DHT22;9148;51.454;13.862;2023-05-07T02:33:38;9.10;99.90
18047;DHT22;9148;51.454;13.862;2023-05-07T02:36:08;9.10;99.90
18047;DHT22;9148;51.454;13.862;2023-05-07T02:38:35;9.10;99.90
18047;DHT22;9148;51.454;13.862;2023-05-07T02:41:01;9.10;99.90
18047;DHT22;9148;51.454;13.862;2023-05-07T02:43:27;9.10;99.90
18047;DHT22;9148;51.454;13.862;2023-05-07T02:46:01;9.10;99.90
18047;DHT22;9148;51.454;13.862;2023-05-07T02:48:28;9.10;99.90
18047;DHT22;9148;51.454;13.862;2023-05-07T02:50:53;9.10;99.90
18047;DHT22;9148;51.454;13.862;2023-05-07T02:53:19;9.10;99.90
18047;DHT22;9148;51.454;13.862;2023-05-07T02:55:45;9.10;99.90
18047;DHT22;9148;51.454;13.862;2023-05-07T02:58:10;8.80;99.90
18047;DHT22;9148;51.454;13.862;2023-05-07T03:00:36;9.10;99.90
18047;DHT22;9148;51.454;13.862;2023-05-07T03:03:02;9.10;99.90
18047;DHT22;9148;51.454;13.862;2023-05-07T03:05:27;9.20;99.90
18047;DHT22;9148;51.454;13.862;2023-05-07T03:07:53;9.20;99.90
18047;DHT22;9148;51.454;13.862;2023-05-07T03:10:19;9.20;99.90
18047;DHT22;9148;51.454;13.862;2023-05-07T03:12:44;9.20;99.90
18047;DHT22;9148;51.454;13.862;2023-05-07T03:15:10;9.20;99.90
18047;DHT22;9148;51.454;13.862;2023-05-07T03:17:38;9.20;99.90
18047;DHT22;9148;51.454;13.862;2023-05-07T03:20:04;9.30;99.90
18047;DHT22;9148;51.454;13.862;2023-05-07T03:22:30;9.40;99.90
18047;DHT22;9148;51.454;13.862;2023-05-07T03:24:56;9.40;99.90
18047;DHT22;9148;51.454;13.862;2023-05-07T03:27:21;9.40;99.90
18047;DHT22;9148;51.454;13.862;2023-05-07T03:29:50;9.40;99.90
18047;DHT22;9148;51.454;13.862;2023-05-07T03:32:15;9.40;99.90
18047;DHT22;9148;51.454;13.862;2023-05-07T03:34:41;9.40;99.90
18047;DHT22;9148;51.454;13.862;2023-05-07T03:37:07;9.50;99.90
18047;DHT22;9148;51.454;13.862;2023-05-07T03:39:32;9.50;99.90
18047;DHT22;9148;51.454;13.862;2023-05-07T03:41:58;9.50;99.90
18047;DHT22;9148;51.454;13.862;2023-05-07T03:44:24;9.50;99.90
18047;DHT22;9148;51.454;13.862;2023-05-07T03:46:49;9.60;99.90
18047;DHT22;9148;51.454;13.862;2023-05-07T03:49:15;9.60;99.90
18047;DHT22;9148;51.454;13.862;2023-05-07T03:51:41;9.60;99.90
18047;DHT22;9148;51.454;13.862;2023-05-07T03:54:07;9.60;99.90
18047;DHT22;9148;51.454;13.862;2023-05-07T03:56:33;9.70;99.90
18047;DHT22;9148;51.454;13.862;2023-05-07T03:58:59;9.70;99.90
18047;DHT22;9148;51.454;13.862;2023-05-07T04:01:26;9.80;99.90
18047;DHT22;9148;51.454;13.862;2023-05-07T04:03:51;9.80;99.90
18047;DHT22;9148;51.454;13.862;2023-05-07T04:06:17;9.90;99.90
18047;DHT22;9148;51.454;13.862;2023-05-07T04:08:43;9.90;99.90
18047;DHT22;9148;51.454;13.862;2023-05-07T04:11:09;9.90;99.90
18047;DHT22;9148;51.454;13.862;2023-05-07T04:13:34;9.90;99.90
18047;DHT22;9148;51.454;13.862;2023-05-07T04:16:02;9.90;99.90
18047;DHT22;9148;51.454;13.862;2023-05-07T04:18:28;9.90;99.90
18047;DHT22;9148;51.454;13.862;2023-05-07T04:20:54;9.90;99.90
18047;DHT22;9148;51.454;13.862;2023-05-07T04:23:20;10.00;99.90
18047;DHT22;9148;51.454;13.862;2023-05-07T04:25:47;9.90;99.90
18047;DHT22;9148;51.454;13.862;2023-05-07T04:28:12;9.90;99.90
18047;DHT22;9148;51.454;13.862;2023-05-07T04:30:39;10.00;99.90
18047;DHT22;9148;51.454;13.862;2023-05-07T04:33:05;10.00;99.90
18047;DHT22;9148;51.454;13.862;2023-05-07T04:35:32;10.00;99.90
18047;DHT22;9148;51.454;13.862;2023-05-07T04:37:57;10.00;99.90
18047;DHT22;9148;51.454;13.862;2023-05-07T04:40:23;10.00;99.90
18047;DHT22;9148;51.454;13.862;2023-05-07T04:42:49;10.40;99.90
18047;DHT22;9148;51.454;13.862;2023-05-07T04:45:14;10.20;99.90
18047;DHT22;9148;51.454;13.862;2023-05-07T04:47:40;10.10;99.90
18047;DHT22;9148;51.454;13.862;2023-05-07T04:50:06;10.10;99.90
18047;DHT22;9148;51.454;13.862;2023-05-07T04:52:33;10.10;99.90
18047;DHT22;9148;51.454;13.862;2023-05-07T04:55:00;10.10;99.90
18047;DHT22;9148;51.454;13.862;2023-05-07T04:57:26;10.10;99.90
18047;DHT22;9148;51.454;13.862;2023-05-07T04:59:53;10.10;99.90
18047;DHT22;9148;51.454;13.862;2023-05-07T05:02:19;10.20;99.90
18047;DHT22;9148;51.454;13.862;2023-05-07T05:04:45;10.20;99.90
18047;DHT22;9148;51.454;13.862;2023-05-07T05:07:19;10.20;99.90
18047;DHT22;9148;51.454;13.862;2023-05-07T05:09:45;10.20;99.90
18047;DHT22;9148;51.454;13.862;2023-05-07T05:12:11;10.10;99.90
18047;DHT22;9148;51.454;13.862;2023-05-07T05:14:36;10.10;99.90
18047;DHT22;9148;51.454;13.862;2023-05-07T05:17:02;10.10;99.90
18047;DHT22;9148;51.454;13.862;2023-05-07T05:19:27;10.00;99.90
18047;DHT22;9148;51.454;13.862;2023-05-07T05:21:53;10.00;99.90
18047;DHT22;9148;51.454;13.862;2023-05-07T05:24:19;10.10;99.90
18047;DHT22;9148;51.454;13.862;2023-05-07T05:26:45;10.00;99.90
18047;DHT22;9148;51.454;13.862;2023-05-07T05:29:11;10.00;99.90
18047;DHT22;9148;51.454;13.862;2023-05-07T05:31:36;10.00;99.90
18047;DHT22;9148;51.454;13.862;2023-05-07T05:34:03;10.00;99.90
18047;DHT22;9148;51.454;13.862;2023-05-07T05:36:29;9.90;99.90
18047;DHT22;9148;51.454;13.862;2023-05-07T05:38:55;9.90;99.90
18047;DHT22;9148;51.454;13.862;2023-05-07T05:41:21;10.00;99.90
18047;DHT22;9148;51.454;13.862;2023-05-07T05:43:47;10.00;99.90
18047;DHT22;9148;51.454;13.862;2023-05-07T05:46:12;9.90;99.90
18047;DHT22;9148;51.454;13.862;2023-05-07T05:48:38;9.90;99.90
18047;DHT22;9148;51.454;13.862;2023-05-07T05:51:04;9.90;99.90
18047;DHT22;9148;51.454;13.862;2023-05-07T05:53:29;9.90;99.90
18047;DHT22;9148;51.454;13.862;2023-05-07T05:55:55;9.90;99.90
18047;DHT22;9148;51.454;13.862;2023-05-07T05:58:21;9.90;99.90
18047;DHT22;9148;51.454;13.862;2023-05-07T06:00:46;9.90;99.90
18047;DHT22;9148;51.454;13.862;2023-05-07T06:03:13;9.90;99.90
18047;DHT22;9148;51.454;13.862;2023-05-07T06:05:39;9.90;99.90
18047;DHT22;9148;51.454;13.862;2023-05-07T06:08:04;9.90;99.90
18047;DHT22;9148;51.454;13.862;2023-05-07T06:10:30;9.90;99.90
18047;DHT22;9148;51.454;13.862;2023-05-07T06:12:56;10.00;99.90
18047;DHT22;9148;51.454;13.862;2023-05-07T06:15:22;10.00;99.90
18047;DHT22;9148;51.454;13.862;2023-05-07T06:17:47;10.00;99.90
18047;DHT22;9148;51.454;13.862;2023-05-07T06:20:14;10.00;99.90
18047;DHT22;9148;51.454;13.862;2023-05-07T06:22:40;10.00;99.90
18047;DHT22;9148;51.454;13.862;2023-05-07T06:25:06;10.00;99.90
18047;DHT22;9148;51.454;13.862;2023-05-07T06:27:38;10.00;99.90
18047;DHT22;9148;51.454;13.862;2023-05-07T06:30:05;10.00;99.90
18047;DHT22;9148;51.454;13.862;2023-05-07T06:32:31;10.10;99.90
18047;DHT22;9148;51.454;13.862;2023-05-07T06:34:57;10.00;99.90
18047;DHT22;9148;51.454;13.862;2023-05-07T06:37:23;10.00;99.90
18047;DHT22;9148;51.454;13.862;2023-05-07T06:39:48;10.00;99.90
18047;DHT22;9148;51.454;13.862;2023-05-07T06:42:14;10.00;99.90
18047;DHT22;9148;51.454;13.862;2023-05-07T06:44:40;9.90;99.90
18047;DHT22;9148;51.454;13.862;2023-05-07T06:47:05;9.90;99.90
18047;DHT22;9148;51.454;13.862;2023-05-07T06:49:31;9.90;99.90
18047;DHT22;9148;51.454;13.862;2023-05-07T06:51:57;10.00;99.90
18047;DHT22;9148;51.454;13.862;2023-05-07T06:54:22;10.00;99.90
18047;DHT22;9148;51.454;13.862;2023-05-07T06:56:48;10.00;99.90
18047;DHT22;9148;51.454;13.862;2023-05-07T06:59:14;10.00;99.90
18047;DHT22;9148;51.454;13.862;2023-05-07T07:01:40;10.10;99.90
18047;DHT22;9148;51.454;13.862;2023-05-07T07:04:05;10.10;99.90
18047;DHT22;9148;51.454;13.862;2023-05-07T07:06:31;10.10;99.90
18047;DHT22;9148;51.454;13.862;2023-05-07T07:08:58;10.10;99.90
18047;DHT22;9148;51.454;13.862;2023-05-07T07:11:24;10.10;99.90
18047;DHT22;9148;51.454;13.862;2023-05-07T07:13:50;10.10;99.90
18047;DHT22;9148;51.454;13.862;2023-05-07T07:16:16;10.20;99.90
18047;DHT22;9148;51.454;13.862;2023-05-07T07:18:42;10.20;99.90
18047;DHT22;9148;51.454;13.862;2023-05-07T07:21:07;10.30;99.90
18047;DHT22;9148;51.454;13.862;2023-05-07T07:23:33;10.30;99.90
18047;DHT22;9148;51.454;13.862;2023-05-07T07:25:59;10.30;99.90
18047;DHT22;9148;51.454;13.862;2023-05-07T07:28:24;10.30;99.90
18047;DHT22;9148;51.454;13.862;2023-05-07T07:30:50;10.30;99.90
18047;DHT22;9148;51.454;13.862;2023-05-07T07:33:15;10.30;99.90
18047;DHT22;9148;51.454;13.862;2023-05-07T07:35:41;10.30;99.90
18047;DHT22;9148;51.454;13.862;2023-05-07T07:38:07;10.40;99.90
18047;DHT22;9148;51.454;13.862;2023-05-07T07:40:35;10.40;99.90
18047;DHT22;9148;51.454;13.862;2023-05-07T07:43:01;10.40;99.90
18047;DHT22;9148;51.454;13.862;2023-05-07T07:45:27;10.40;99.90
18047;DHT22;9148;51.454;13.862;2023-05-07T07:47:52;10.40;99.90
18047;DHT22;9148;51.454;13.862;2023-05-07T07:50:18;10.30;99.90
18047;DHT22;9148;51.454;13.862;2023-05-07T07:52:44;10.30;99.90
18047;DHT22;9148;51.454;13.862;2023-05-07T07:55:10;10.30;99.90
18047;DHT22;9148;51.454;13.862;2023-05-07T07:57:36;10.20;99.90
18047;DHT22;9148;51.454;13.862;2023-05-07T08:00:02;10.20;99.90
18047;DHT22;9148;51.454;13.862;2023-05-07T08:02:28;10.20;99.90
18047;DHT22;9148;51.454;13.862;2023-05-07T08:04:54;10.20;99.90
18047;DHT22;9148;51.454;13.862;2023-05-07T08:07:19;10.20;99.90
18047;DHT22;9148;51.454;13.862;2023-05-07T08:09:48;10.20;99.90
18047;DHT22;9148;51.454;13.862;2023-05-07T08:12:13;10.30;99.90
18047;DHT22;9148;51.454;13.862;2023-05-07T08:14:39;10.30;99.90
18047;DHT22;9148;51.454;13.862;2023-05-07T08:17:05;10.30;99.90
18047;DHT22;9148;51.454;13.862;2023-05-07T08:19:31;10.30;99.90
18047;DHT22;9148;51.454;13.862;2023-05-07T08:21:56;10.30;99.90
18047;DHT22;9148;51.454;13.862;2023-05-07T08:24:22;10.30;99.90
18047;DHT22;9148;51.454;13.862;2023-05-07T08:26:47;10.30;99.90
18047;DHT22;9148;51.454;13.862;2023-05-07T08:29:14;10.30;99.90
18047;DHT22;9148;51.454;13.862;2023-05-07T08:31:40;10.40;99.90
18047;DHT22;9148;51.454;13.862;2023-05-07T08:34:06;10.30;99.90
18047;DHT22;9148;51.454;13.862;2023-05-07T08:36:31;10.30;99.90
18047;DHT22;9148;51.454;13.862;2023-05-07T08:38:57;10.40;99.90
18047;DHT22;9148;51.454;13.862;2023-05-07T08:41:24;10.40;99.90
18047;DHT22;9148;51.454;13.862;2023-05-07T08:43:50;10.40;99.90
18047;DHT22;9148;51.454;13.862;2023-05-07T08:46:21;10.30;99.90
18047;DHT22;9148;51.454;13.862;2023-05-07T08:48:51;10.30;99.90
18047;DHT22;9148;51.454;13.862;2023-05-07T08:51:19;10.40;99.90
18047;DHT22;9148;51.454;13.862;2023-05-07T08:53:47;10.50;99.90
18047;DHT22;9148;51.454;13.862;2023-05-07T08:56:16;10.60;99.90
18047;DHT22;9148;51.454;13.862;2023-05-07T08:58:43;10.60;99.90
18047;DHT22;9148;51.454;13.862;2023-05-07T09:01:13;10.70;99.90
18047;DHT22;9148;51.454;13.862;2023-05-07T09:03:53;10.70;99.90
18047;DHT22;9148;51.454;13.862;2023-05-07T09:06:18;10.90;99.90
18047;DHT22;9148;51.454;13.862;2023-05-07T09:08:50;10.80;99.90
18047;DHT22;9148;51.454;13.862;2023-05-07T09:11:20;10.90;99.90
18047;DHT22;9148;51.454;13.862;2023-05-07T09:13:55;11.00;99.90
18047;DHT22;9148;51.454;13.862;2023-05-07T09:16:23;11.00;99.90
18047;DHT22;9148;51.454;13.862;2023-05-07T09:18:53;11.00;99.90
18047;DHT22;9148;51.454;13.862;2023-05-07T09:21:20;11.00;99.90
18047;DHT22;9148;51.454;13.862;2023-05-07T09:23:50;11.00;99.90
18047;DHT22;9148;51.454;13.862;2023-05-07T09:26:16;11.10;99.90
18047;DHT22;9148;51.454;13.862;2023-05-07T09:28:42;11.20;99.90
18047;DHT22;9148;51.454;13.862;2023-05-07T09:31:09;11.40;99.90
18047;DHT22;9148;51.454;13.862;2023-05-07T09:33:35;11.60;99.90
18047;DHT22;9148;51.454;13.862;2023-05-07T09:36:09;11.70;99.90
18047;DHT22;9148;51.454;13.862;2023-05-07T09:38:36;11.80;99.90
18047;DHT22;9148;51.454;13.862;2023-05-07T09:43:34;11.70;99.90
18047;DHT22;9148;51.454;13.862;2023-05-07T09:46:12;11.70;99.90
18047;DHT22;9148;51.454;13.862;2023-05-07T09:48:41;11.70;99.90
18047;DHT22;9148;51.454;13.862;2023-05-07T09:51:30;11.80;99.90
18047;DHT22;9148;51.454;13.862;2023-05-07T09:54:00;11.90;99.90
18047;DHT22;9148;51.454;13.862;2023-05-07T09:56:29;12.00;99.90
18047;DHT22;9148;51.454;13.862;2023-05-07T09:58:59;12.00;99.90
18047;DHT22;9148;51.454;13.862;2023-05-07T10:01:26;12.00;99.90
18047;DHT22;9148;51.454;13.862;2023-05-07T10:03:53;12.00;99.90
18047;DHT22;9148;51.454;13.862;2023-05-07T10:06:23;12.00;99.90
18047;DHT22;9148;51.454;13.862;2023-05-07T10:08:51;12.00;99.90
18047;DHT22;9148;51.454;13.862;2023-05-07T10:11:17;12.10;99.90
18047;DHT22;9148;51.454;13.862;2023-05-07T10:13:43;12.10;99.90
18047;DHT22;9148;51.454;13.862;2023-05-07T10:16:11;12.10;99.90
18047;DHT22;9148;51.454;13.862;2023-05-07T10:18:37;12.30;99.90
18047;DHT22;9148;51.454;13.862;2023-05-07T10:21:22;12.30;99.90
18047;DHT22;9148;51.454;13.862;2023-05-07T10:24:00;12.30;99.90
18047;DHT22;9148;51.454;13.862;2023-05-07T10:26:32;12.40;99.90
18047;DHT22;9148;51.454;13.862;2023-05-07T10:29:11;12.40;99.90
18047;DHT22;9148;51.454;13.862;2023-05-07T10:32:07;12.40;99.90
18047;DHT22;9148;51.454;13.862;2023-05-07T10:34:43;12.50;99.90
18047;DHT22;9148;51.454;13.862;2023-05-07T10:37:11;12.50;99.90
18047;DHT22;9148;51.454;13.862;2023-05-07T10:39:37;12.60;99.90
18047;DHT22;9148;51.454;13.862;2023-05-07T10:42:13;12.60;99.90
18047;DHT22;9148;51.454;13.862;2023-05-07T10:44:40;12.70;99.90
18047;DHT22;9148;51.454;13.862;2023-05-07T10:47:07;12.60;99.90
18047;DHT22;9148;51.454;13.862;2023-05-07T10:52:16;12.90;99.90
18047;DHT22;9148;51.454;13.862;2023-05-07T10:54:43;12.90;99.90
18047;DHT22;9148;51.454;13.862;2023-05-07T10:59:57;13.10;99.90
18047;DHT22;9148;51.454;13.862;2023-05-07T11:02:23;13.20;99.90
18047;DHT22;9148;51.454;13.862;2023-05-07T11:05:20;13.30;99.90
18047;DHT22;9148;51.454;13.862;2023-05-07T11:08:00;13.30;99.90
18047;DHT22;9148;51.454;13.862;2023-05-07T11:10:52;13.50;99.90
18047;DHT22;9148;51.454;13.862;2023-05-07T11:13:46;13.50;99.90
18047;DHT22;9148;51.454;13.862;2023-05-07T11:16:23;13.50;99.90
18047;DHT22;9148;51.454;13.862;2023-05-07T11:18:51;13.40;99.90
18047;DHT22;9148;51.454;13.862;2023-05-07T11:21:34;13.30;99.90
18047;DHT22;9148;51.454;13.862;2023-05-07T11:24:10;13.10;99.90
18047;DHT22;9148;51.454;13.862;2023-05-07T11:26:49;13.20;99.90
18047;DHT22;9148;51.454;13.862;2023-05-07T11:29:20;13.20;99.90
18047;DHT22;9148;51.454;13.862;2023-05-07T11:31:51;13.30;99.90
18047;DHT22;9148;51.454;13.862;2023-05-07T11:34:22;13.30;99.90
18047;DHT22;9148;51.454;13.862;2023-05-07T11:36:49;13.20;99.70
18047;DHT22;9148;51.454;13.862;2023-05-07T11:42:30;13.20;99.90
18047;DHT22;9148;51.454;13.862;2023-05-07T11:44:57;13.20;99.90
18047;DHT22;9148;51.454;13.862;2023-05-07T11:47:24;13.20;99.50
18047;DHT22;9148;51.454;13.862;2023-05-07T11:49:54;13.20;99.50
18047;DHT22;9148;51.454;13.862;2023-05-07T11:52:22;13.20;99.70
18047;DHT22;9148;51.454;13.862;2023-05-07T11:54:55;13.20;99.50
18047;DHT22;9148;51.454;13.862;2023-05-07T11:57:22;13.10;99.30
18047;DHT22;9148;51.454;13.862;2023-05-07T11:59:53;13.10;99.70
18047;DHT22;9148;51.454;13.862;2023-05-07T12:02:19;13.00;99.80
18047;DHT22;9148;51.454;13.862;2023-05-07T12:04:45;12.90;99.90
18047;DHT22;9148;51.454;13.862;2023-05-07T12:07:14;12.80;99.90
18047;DHT22;9148;51.454;13.862;2023-05-07T12:09:41;12.90;99.90
18047;DHT22;9148;51.454;13.862;2023-05-07T12:12:07;12.90;99.90
18047;DHT22;9148;51.454;13.862;2023-05-07T12:14:38;13.00;99.90
18047;DHT22;9148;51.454;13.862;2023-05-07T12:17:05;13.10;99.90
18047;DHT22;9148;51.454;13.862;2023-05-07T12:19:31;13.10;99.90
18047;DHT22;9148;51.454;13.862;2023-05-07T12:21:57;13.10;99.90
18047;DHT22;9148;51.454;13.862;2023-05-07T12:24:22;13.10;99.90
18047;DHT22;9148;51.454;13.862;2023-05-07T12:26:48;13.10;99.70
18047;DHT22;9148;51.454;13.862;2023-05-07T12:29:14;13.00;99.90
18047;DHT22;9148;51.454;13.862;2023-05-07T12:31:41;13.00;99.90
18047;DHT22;9148;51.454;13.862;2023-05-07T12:34:07;13.10;99.90
18047;DHT22;9148;51.454;13.862;2023-05-07T12:36:37;13.00;99.90
18047;DHT22;9148;51.454;13.862;2023-05-07T12:39:05;13.10;99.90
18047;DHT22;9148;51.454;13.862;2023-05-07T12:41:56;13.20;99.90
18047;DHT22;9148;51.454;13.862;2023-05-07T12:44:31;13.20;99.90
18047;DHT22;9148;51.454;13.862;2023-05-07T12:46:58;13.30;99.90
18047;DHT22;9148;51.454;13.862;2023-05-07T12:49:26;13.30;99.90
18047;DHT22;9148;51.454;13.862;2023-05-07T12:51:52;13.30;99.90
18047;DHT22;9148;51.454;13.862;2023-05-07T12:54:32;13.20;99.90
18047;DHT22;9148;51.454;13.862;2023-05-07T12:57:06;13.10;99.90
18047;DHT22;9148;51.454;13.862;2023-05-07T12:59:36;13.00;99.90
18047;DHT22;9148;51.454;13.862;2023-05-07T13:02:03;13.10;99.90
18047;DHT22;9148;51.454;13.862;2023-05-07T13:04:30;13.10;99.90
18047;DHT22;9148;51.454;13.862;2023-05-07T13:06:56;13.10;99.90
18047;DHT22;9148;51.454;13.862;2023-05-07T13:09:21;13.10;99.90
18047;DHT22;9148;51.454;13.862;2023-05-07T13:11:47;13.10;99.90
18047;DHT22;9148;51.454;13.862;2023-05-07T13:14:12;13.10;99.90
18047;DHT22;9148;51.454;13.862;2023-05-07T13:16:38;13.20;99.90
18047;DHT22;9148;51.454;13.862;2023-05-07T13:19:04;13.10;99.90
18047;DHT22;9148;51.454;13.862;2023-05-07T13:21:30;13.10;99.90
18047;DHT22;9148;51.454;13.862;2023-05-07T13:23:57;13.10;99.90
18047;DHT22;9148;51.454;13.862;2023-05-07T13:26:23;13.10;99.90
18047;DHT22;9148;51.454;13.862;2023-05-07T13:28:50;13.10;99.90
18047;DHT22;9148;51.454;13.862;2023-05-07T13:31:17;13.00;99.90
18047;DHT22;9148;51.454;13.862;2023-05-07T13:33:42;12.90;99.90
18047;DHT22;9148;51.454;13.862;2023-05-07T13:36:08;12.90;99.90
18047;DHT22;9148;51.454;13.862;2023-05-07T13:38:34;12.80;99.90
18047;DHT22;9148;51.454;13.862;2023-05-07T13:41:00;12.80;99.90
18047;DHT22;9148;51.454;13.862;2023-05-07T13:43:26;12.80;99.90
18047;DHT22;9148;51.454;13.862;2023-05-07T13:45:54;12.70;99.90
18047;DHT22;9148;51.454;13.862;2023-05-07T13:48:20;12.60;99.90
18047;DHT22;9148;51.454;13.862;2023-05-07T13:50:45;12.50;99.90
18047;DHT22;9148;51.454;13.862;2023-05-07T13:53:11;12.50;99.90
18047;DHT22;9148;51.454;13.862;2023-05-07T13:55:37;12.40;99.90
18047;DHT22;9148;51.454;13.862;2023-05-07T13:58:03;12.40;99.90
18047;DHT22;9148;51.454;13.862;2023-05-07T14:00:29;12.30;99.90
18047;DHT22;9148;51.454;13.862;2023-05-07T14:02:55;12.40;99.90
18047;DHT22;9148;51.454;13.862;2023-05-07T14:05:22;12.40;99.90
18047;DHT22;9148;51.454;13.862;2023-05-07T14:07:53;12.50;99.90
18047;DHT22;9148;51.454;13.862;2023-05-07T14:10:26;12.50;99.90
18047;DHT22;9148;51.454;13.862;2023-05-07T14:12:52;12.50;99.90
18047;DHT22;9148;51.454;13.862;2023-05-07T14:15:18;12.60;99.90
18047;DHT22;9148;51.454;13.862;2023-05-07T14:17:44;12.60;99.90
18047;DHT22;9148;51.454;13.862;2023-05-07T14:20:10;12.70;99.90
18047;DHT22;9148;51.454;13.862;2023-05-07T14:22:36;12.70;99.90
18047;DHT22;9148;51.454;13.862;2023-05-07T14:25:02;12.50;99.90
18047;DHT22;9148;51.454;13.862;2023-05-07T14:27:28;12.90;99.90
18047;DHT22;9148;51.454;13.862;2023-05-07T14:29:54;12.90;99.90
18047;DHT22;9148;51.454;13.862;2023-05-07T14:32:20;13.00;99.90
18047;DHT22;9148;51.454;13.862;2023-05-07T14:34:46;12.90;99.90
18047;DHT22;9148;51.454;13.862;2023-05-07T14:37:12;13.00;99.90
18047;DHT22;9148;51.454;13.862;2023-05-07T14:39:39;12.90;99.90
18047;DHT22;9148;51.454;13.862;2023-05-07T14:42:05;12.90;99.90
18047;DHT22;9148;51.454;13.862;2023-05-07T14:44:30;12.80;99.90
18047;DHT22;9148;51.454;13.862;2023-05-07T14:46:56;12.70;99.90
18047;DHT22;9148;51.454;13.862;2023-05-07T14:49:22;12.70;99.90
18047;DHT22;9148;51.454;13.862;2023-05-07T14:51:48;12.70;99.90
18047;DHT22;9148;51.454;13.862;2023-05-07T14:54:14;12.60;99.90
18047;DHT22;9148;51.454;13.862;2023-05-07T14:56:41;12.60;99.90
18047;DHT22;9148;51.454;13.862;2023-05-07T14:59:07;12.60;99.90
18047;DHT22;9148;51.454;13.862;2023-05-07T15:01:36;12.60;99.90
18047;DHT22;9148;51.454;13.862;2023-05-07T15:04:03;12.60;99.90
18047;DHT22;9148;51.454;13.862;2023-05-07T15:06:29;12.60;99.90
18047;DHT22;9148;51.454;13.862;2023-05-07T15:08:55;12.60;99.90
18047;DHT22;9148;51.454;13.862;2023-05-07T15:11:20;12.60;99.90
18047;DHT22;9148;51.454;13.862;2023-05-07T15:13:46;12.60;99.90
18047;DHT22;9148;51.454;13.862;2023-05-07T15:16:12;12.50;99.90
18047;DHT22;9148;51.454;13.862;2023-05-07T15:18:38;12.50;99.90
18047;DHT22;9148;51.454;13.862;2023-05-07T15:21:04;12.50;99.90
18047;DHT22;9148;51.454;13.862;2023-05-07T15:23:30;12.50;99.90
18047;DHT22;9148;51.454;13.862;2023-05-07T15:25:56;12.60;99.90
18047;DHT22;9148;51.454;13.862;2023-05-07T15:28:21;12.70;99.90
18047;DHT22;9148;51.454;13.862;2023-05-07T15:30:47;12.80;99.90
18047;DHT22;9148;51.454;13.862;2023-05-07T15:33:13;12.80;99.90
18047;DHT22;9148;51.454;13.862;2023-05-07T15:35:39;12.90;99.90
18047;DHT22;9148;51.454;13.862;2023-05-07T15:38:05;12.90;99.90
18047;DHT22;9148;51.454;13.862;2023-05-07T15:40:31;12.90;99.70
18047;DHT22;9148;51.454;13.862;2023-05-07T15:42:56;12.90;99.40
18047;DHT22;9148;51.454;13.862;2023-05-07T15:45:23;12.90;99.20
18047;DHT22;9148;51.454;13.862;2023-05-07T15:47:49;12.80;98.30